Time;durP1;ratioP1;P1;durP2;ratioP2;P2;SDS_P1;SDS_P2;PMS_P1;PMS_P2;Temp;Humidity;BMP_temperature;BMP_pressure;BME280_temperature;BME280_humidity;BME280_pressure;Samples;Min_cycle;Max_cycle;Signal;HPM_P1;HPM_P2
2022/03/18 00:01:48;;;;;;;;;3.00;3.00;;;;;18.00;50.48;103978.66;4914835;29;9740;-70
2022/03/18 00:04:14;;;;;;;;;2.33;2.33;;;;;18.00;50.41;103973.38;4915869;29;8832;-70
2022/03/18 00:06:40;;;;;;;;;2.75;2.75;;;;;17.99;50.48;103969.84;4916185;29;8805;-70
2022/03/18 00:09:05;;;;;;;;;4.00;3.25;;;;;17.97;50.02;103960.94;4915217;29;8817;-71
2022/03/18 00:11:31;;;;;;;;;4.75;3.75;;;;;18.00;50.13;103962.81;4915840;29;9755;-70
2022/03/18 00:13:58;;;;;;;;;3.00;2.75;;;;;17.97;50.03;103967.97;4915694;29;8793;-70
2022/03/18 00:16:23;;;;;;;;;3.25;3.25;;;;;17.95;50.10;103973.22;4915325;29;8998;-70
2022/03/18 00:18:49;;;;;;;;;2.25;2.25;;;;;17.99;50.08;103976.88;4915595;29;10322;-70
2022/03/18 00:21:14;;;;;;;;;3.00;3.00;;;;;17.95;50.21;103978.50;4915383;29;8872;-70
2022/03/18 00:23:40;;;;;;;;;3.25;3.00;;;;;17.95;49.88;103977.59;4914916;29;8784;-70
2022/03/18 00:26:05;;;;;;;;;4.00;3.75;;;;;17.95;50.09;103980.25;4915405;29;9636;-69
2022/03/18 00:28:30;;;;;;;;;2.50;1.50;;;;;17.92;50.13;103985.41;4915668;29;8836;-70
2022/03/18 00:30:55;;;;;;;;;3.50;3.50;;;;;17.95;49.97;103977.59;4914778;29;8788;-69
2022/03/18 00:33:21;;;;;;;;;2.75;2.00;;;;;17.96;49.68;103984.69;4915656;29;8995;-70
2022/03/18 00:35:46;;;;;;;;;3.50;3.50;;;;;17.97;49.61;103992.66;4915495;29;8797;-70
2022/03/18 00:38:12;;;;;;;;;1.00;1.00;;;;;17.94;49.76;103986.34;4911390;29;8995;-71
2022/03/18 00:40:37;;;;;;;;;3.25;3.25;;;;;17.92;49.60;103981.00;4915248;29;8824;-71
2022/03/18 00:43:03;;;;;;;;;3.00;3.00;;;;;17.89;49.83;103988.81;4914786;29;8824;-70
2022/03/18 00:45:31;;;;;;;;;1.75;1.75;;;;;17.89;49.70;103991.44;4914812;29;8843;-70
2022/03/18 00:53:25;;;;;;;;;3.50;2.00;;;;;17.91;49.59;103991.53;4916396;29;9363;-70
2022/03/18 00:55:50;;;;;;;;;2.00;2.00;;;;;17.91;49.60;103991.53;4915469;29;10442;-70
2022/03/18 00:58:15;;;;;;;;;2.25;2.00;;;;;17.90;49.99;103985.31;4914730;29;8808;-69
2022/03/18 01:00:41;;;;;;;;;2.00;2.00;;;;;17.88;49.42;103986.13;4914600;29;9517;-69
2022/03/18 01:03:06;;;;;;;;;3.75;3.75;;;;;17.86;49.60;103992.22;4913954;29;8844;-69
2022/03/18 01:05:32;;;;;;;;;2.25;2.25;;;;;17.88;49.22;103985.25;4913131;29;8878;-71
2022/03/18 01:07:58;;;;;;;;;2.25;2.25;;;;;17.87;49.44;103998.41;4916475;29;8828;-70
2022/03/18 01:10:23;;;;;;;;;1.75;1.75;;;;;17.83;49.56;104000.03;4915733;29;8836;-70
2022/03/18 01:12:48;;;;;;;;;2.50;2.50;;;;;17.80;49.65;104002.56;4914497;29;8836;-70
2022/03/18 01:15:17;;;;;;;;;3.00;3.00;;;;;17.84;49.41;104007.13;4914533;29;8808;-70
2022/03/18 01:17:42;;;;;;;;;2.00;2.00;;;;;17.86;49.41;104002.81;4914762;29;8820;-70
2022/03/18 01:20:08;;;;;;;;;1.00;1.00;;;;;17.86;49.27;103993.97;4913644;29;9526;-70
2022/03/18 01:22:33;;;;;;;;;2.25;2.00;;;;;17.84;49.07;103987.72;4914893;29;8891;-69
2022/03/18 01:24:58;;;;;;;;;3.75;2.00;;;;;17.85;49.44;103986.88;4914688;29;8805;-69
2022/03/18 01:27:24;;;;;;;;;3.00;2.00;;;;;17.83;49.11;103991.19;4913993;29;8923;-70
2022/03/18 01:29:49;;;;;;;;;1.00;1.00;;;;;17.83;49.24;103985.91;4914668;29;8847;-70
2022/03/18 01:32:14;;;;;;;;;3.25;2.25;;;;;17.82;49.03;103986.75;4914192;29;8821;-69
2022/03/18 01:34:40;;;;;;;;;2.75;2.00;;;;;17.82;49.31;103992.94;4913570;29;8796;-70
2022/03/18 01:37:05;;;;;;;;;1.50;1.50;;;;;17.82;48.84;103985.00;4911048;29;8840;-69
2022/03/18 01:39:31;;;;;;;;;3.00;2.00;;;;;17.81;49.19;103999.06;4914311;29;8808;-70
2022/03/18 01:41:56;;;;;;;;;1.00;1.00;;;;;17.81;49.15;103999.06;4913364;29;8848;-70
2022/03/18 01:44:21;;;;;;;;;3.75;2.75;;;;;17.82;48.91;104005.25;4914524;29;8891;-70
2022/03/18 01:46:47;;;;;;;;;2.00;2.00;;;;;17.81;48.91;104006.06;4914585;29;8832;-71
2022/03/18 01:49:12;;;;;;;;;3.00;3.00;;;;;17.81;49.03;104000.78;4913318;29;8789;-71
2022/03/18 01:51:40;;;;;;;;;2.75;2.75;;;;;17.78;48.88;103998.94;4913966;29;8812;-70
2022/03/18 01:56:50;;;;;;;;;2.00;2.00;;;;;17.75;48.93;103998.81;4913933;29;9562;-71
2022/03/18 01:59:16;;;;;;;;;2.00;2.00;;;;;17.79;48.79;103995.47;4913750;29;9535;-69
2022/03/18 02:01:41;;;;;;;;;2.00;2.00;;;;;17.80;49.32;103991.97;4912923;29;9753;-70
2022/03/18 02:04:08;;;;;;;;;1.50;1.50;;;;;17.78;48.87;103988.34;4913592;29;9575;-70
2022/03/18 02:06:34;;;;;;;;;3.00;3.00;;;;;17.83;48.69;103993.84;4913170;29;8927;-70
2022/03/18 02:08:59;;;;;;;;;2.50;1.50;;;;;17.79;49.16;103999.84;4913104;29;9593;-70
2022/03/18 02:11:26;;;;;;;;;2.25;2.25;;;;;17.80;49.04;103999.00;4913763;29;8817;-70
2022/03/18 02:14:00;;;;;;;;;2.00;2.00;;;;;17.81;48.99;103993.75;4913866;29;8809;-70
2022/03/18 02:16:25;;;;;;;;;2.25;2.25;;;;;17.79;48.82;103991.91;4913077;29;9746;-70
2022/03/18 02:18:50;;;;;;;;;1.25;1.25;;;;;17.76;48.82;104002.34;4913679;29;9595;-70
2022/03/18 02:21:16;;;;;;;;;2.00;2.00;;;;;17.75;48.98;104005.81;4913248;29;8902;-71
2022/03/18 02:23:43;;;;;;;;;2.00;1.75;;;;;17.72;49.10;104014.53;4912745;29;8812;-71
2022/03/18 02:26:09;;;;;;;;;3.00;3.00;;;;;17.73;48.88;104013.69;4913134;29;8863;-71
2022/03/18 02:28:41;;;;;;;;;4.00;4.00;;;;;17.75;48.98;104011.13;4913451;29;9825;-70
2022/03/18 02:31:07;;;;;;;;;2.75;2.75;;;;;17.72;48.93;104017.19;4912798;29;9837;-70
2022/03/18 02:33:32;;;;;;;;;3.00;3.00;;;;;17.74;48.88;104025.16;4913508;29;9740;-70
2022/03/18 02:35:57;;;;;;;;;1.75;1.75;;;;;17.75;48.61;104026.97;4913163;29;8942;-69
2022/03/18 02:38:23;;;;;;;;;3.25;3.25;;;;;17.74;48.71;104026.06;4909328;29;8837;-70
2022/03/18 02:40:48;;;;;;;;;1.00;1.00;;;;;17.72;48.81;104029.50;4913195;29;8979;-69
2022/03/18 02:43:13;;;;;;;;;3.75;3.00;;;;;17.74;48.54;104030.44;4913334;29;8828;-70
2022/03/18 02:45:39;;;;;;;;;3.50;3.00;;;;;17.70;48.85;104034.69;4912672;29;8800;-70
2022/03/18 02:48:04;;;;;;;;;2.00;1.50;;;;;17.72;48.74;104037.41;4912736;29;8824;-70
2022/03/18 02:50:30;;;;;;;;;3.00;3.00;;;;;17.72;48.58;104038.31;4913436;29;8884;-71
2022/03/18 02:52:55;;;;;;;;;3.50;2.50;;;;;17.71;48.70;104030.31;4912532;29;8891;-72
2022/03/18 02:55:21;;;;;;;;;2.00;2.00;;;;;17.74;48.67;104039.28;4912957;29;8955;-71
2022/03/18 02:57:47;;;;;;;;;1.75;1.25;;;;;17.73;48.69;104039.22;4912682;29;8805;-70
2022/03/18 03:00:12;;;;;;;;;1.25;1.25;;;;;17.71;48.82;104047.06;4913100;29;8869;-70
2022/03/18 03:02:37;;;;;;;;;2.00;2.00;;;;;17.70;48.65;104045.25;4913121;29;8860;-71
2022/03/18 03:07:59;;;;;;;;;2.00;2.00;;;;;17.68;48.50;104049.59;4913081;29;8800;-70
2022/03/18 03:10:29;;;;;;;;;0.75;0.75;;;;;17.66;48.83;104058.28;4913292;29;9528;-71
2022/03/18 03:12:56;;;;;;;;;2.75;1.50;;;;;17.71;48.25;104054.09;4912189;29;9598;-70
2022/03/18 03:15:21;;;;;;;;;1.00;1.00;;;;;17.72;48.18;104058.56;4913127;29;9535;-71
2022/03/18 03:17:47;;;;;;;;;2.00;0.75;;;;;17.72;48.28;104056.81;4913225;29;9620;-70
2022/03/18 03:20:15;;;;;;;;;2.50;1.50;;;;;17.69;48.36;104055.78;4912029;29;9603;-70
2022/03/18 03:22:41;;;;;;;;;1.75;1.25;;;;;17.67;48.38;104063.63;4912481;29;8878;-71
2022/03/18 03:25:06;;;;;;;;;1.00;1.00;;;;;17.62;48.74;104057.22;4912889;29;9782;-70
2022/03/18 03:27:32;;;;;;;;;1.75;1.75;;;;;17.63;48.38;104068.72;4912920;29;8974;-70
2022/03/18 03:30:03;;;;;;;;;2.75;2.00;;;;;17.65;48.43;104053.84;4916715;29;8812;-70
2022/03/18 03:32:28;;;;;;;;;3.00;2.00;;;;;17.61;48.71;104054.53;4916879;29;8812;-70
2022/03/18 03:34:54;;;;;;;;;3.00;2.00;;;;;17.64;48.66;104065.25;4915847;29;9578;-70
2022/03/18 03:37:20;;;;;;;;;2.00;2.00;;;;;17.62;48.47;104066.94;4913224;29;8797;-70
2022/03/18 03:39:45;;;;;;;;;2.00;2.00;;;;;17.65;48.71;104064.41;4916890;29;9613;-70
2022/03/18 03:42:11;;;;;;;;;2.00;2.00;;;;;17.64;48.30;104066.16;4915590;29;8828;-70
2022/03/18 03:44:36;;;;;;;;;3.50;3.50;;;;;17.62;48.66;104062.53;4916359;29;8915;-70
2022/03/18 03:47:01;;;;;;;;;3.00;3.00;;;;;17.64;48.55;104067.88;4915149;29;8947;-69
2022/03/18 03:49:26;;;;;;;;;1.75;0.50;;;;;17.62;48.47;104072.22;4916241;29;8813;-69
2022/03/18 03:51:52;;;;;;;;;2.00;2.00;;;;;17.62;48.38;104070.44;4916191;29;8871;-71
2022/03/18 03:54:17;;;;;;;;;3.25;2.25;;;;;17.60;48.37;104068.59;4915339;29;8808;-69
2022/03/18 03:56:43;;;;;;;;;1.50;1.50;;;;;17.61;48.52;104076.59;4916111;29;8804;-70
2022/03/18 03:59:08;;;;;;;;;2.00;2.00;;;;;17.60;47.91;104072.13;4920024;29;8864;-69
2022/03/18 04:01:33;;;;;;;;;3.00;2.50;;;;;17.62;48.35;104077.50;4916847;29;11731;-71
2022/03/18 04:03:59;;;;;;;;;2.00;2.00;;;;;17.64;48.23;104078.44;4916198;29;8804;-71
2022/03/18 04:06:25;;;;;;;;;2.75;2.00;;;;;17.58;48.24;104084.38;4915921;29;8863;-70
2022/03/18 04:08:51;;;;;;;;;3.00;3.00;;;;;17.56;48.22;104078.06;4915584;29;8808;-71
2022/03/18 04:11:16;;;;;;;;;2.00;1.00;;;;;17.60;48.29;104080.06;4916018;29;10286;-70
2022/03/18 04:13:41;;;;;;;;;2.00;2.00;;;;;17.57;48.08;104093.13;4917271;29;8805;-71
2022/03/18 04:16:06;;;;;;;;;3.25;2.75;;;;;17.54;48.08;104087.69;4918485;29;8967;-70
2022/03/18 04:18:32;;;;;;;;;2.00;2.00;;;;;17.56;48.14;104090.38;4916387;29;8805;-70
2022/03/18 04:20:57;;;;;;;;;3.00;2.00;;;;;17.56;48.13;104096.56;4915996;29;8844;-70
2022/03/18 04:23:22;;;;;;;;;3.00;2.75;;;;;17.58;47.85;104100.25;4914970;29;8828;-70
2022/03/18 04:25:51;;;;;;;;;2.00;2.00;;;;;17.62;48.01;104102.16;4916000;29;8883;-71
2022/03/18 04:28:16;;;;;;;;;1.75;1.75;;;;;17.57;48.09;104108.09;4915615;29;8819;-70
2022/03/18 04:30:42;;;;;;;;;3.00;3.00;;;;;17.55;47.78;104112.34;4915148;29;9575;-70
2022/03/18 04:33:07;;;;;;;;;2.00;2.00;;;;;17.56;48.02;104111.50;4915269;29;8804;-70
2022/03/18 04:35:32;;;;;;;;;1.00;1.00;;;;;17.54;47.76;104097.34;4915493;29;8827;-71
2022/03/18 04:37:58;;;;;;;;;3.00;3.00;;;;;17.52;47.96;104091.06;4911586;29;9499;-70
2022/03/18 04:40:23;;;;;;;;;2.00;2.00;;;;;17.54;47.70;104094.72;4914413;29;9619;-70
2022/03/18 04:42:48;;;;;;;;;2.00;2.00;;;;;17.57;47.88;104094.88;4915464;29;8855;-70
2022/03/18 04:45:14;;;;;;;;;2.75;2.00;;;;;17.54;47.90;104097.34;4914393;29;8840;-71
2022/03/18 04:47:39;;;;;;;;;2.00;2.00;;;;;17.55;47.85;104099.13;4915023;29;8813;-70
2022/03/18 04:50:07;;;;;;;;;2.00;2.00;;;;;17.56;47.87;104096.56;4915314;29;8815;-70
2022/03/18 04:52:32;;;;;;;;;2.25;2.25;;;;;17.48;47.93;104097.97;4914964;29;8800;-69
2022/03/18 04:54:58;;;;;;;;;1.25;1.25;;;;;17.51;47.45;104113.06;4915017;29;9639;-70
2022/03/18 04:57:23;;;;;;;;;2.00;2.00;;;;;17.52;47.85;104110.47;4914388;29;8855;-70
2022/03/18 04:59:54;;;;;;;;;2.00;2.00;;;;;17.52;47.51;104115.75;4915140;29;9528;-70
2022/03/18 05:02:24;;;;;;;;;2.00;2.00;;;;;17.49;48.09;104120.00;4914764;29;9059;-69
2022/03/18 05:04:49;;;;;;;;;2.50;2.00;;;;;17.50;47.44;104119.19;4914414;29;9574;-69
2022/03/18 05:07:15;;;;;;;;;0.00;0.00;;;;;17.49;47.61;104135.84;4914962;29;9464;-69
2022/03/18 05:09:42;;;;;;;;;2.75;2.75;;;;;17.51;47.71;104126.28;4914954;29;8832;-69
2022/03/18 05:12:12;;;;;;;;;2.75;2.25;;;;;17.51;47.41;104134.19;4913742;29;9763;-69
2022/03/18 05:14:38;;;;;;;;;3.00;3.00;;;;;17.51;47.65;104144.78;4914937;29;9458;-69
2022/03/18 05:17:04;;;;;;;;;2.00;2.00;;;;;17.51;47.72;104144.78;4914348;29;9617;-68
2022/03/18 05:19:32;;;;;;;;;3.00;3.00;;;;;17.48;47.75;104137.59;4914362;29;9522;-68
2022/03/18 05:21:58;;;;;;;;;1.25;1.25;;;;;17.48;47.54;104141.97;4914729;29;9701;-70
2022/03/18 05:24:26;;;;;;;;;1.25;1.25;;;;;17.46;47.45;104143.66;4914846;29;9734;-70
2022/03/18 05:26:51;;;;;;;;;2.75;2.75;;;;;17.45;47.60;104140.09;4913832;29;9451;-70
2022/03/18 05:29:16;;;;;;;;;1.75;1.75;;;;;17.47;47.76;104156.91;4913993;29;9610;-70
2022/03/18 05:31:43;;;;;;;;;2.50;1.50;;;;;17.48;47.56;104163.09;4914109;29;8975;-70
2022/03/18 05:34:08;;;;;;;;;1.00;1.00;;;;;17.47;47.76;104170.13;4913394;29;8835;-70
2022/03/18 05:36:33;;;;;;;;;2.00;2.00;;;;;17.48;47.59;104176.31;4910857;29;10130;-69
2022/03/18 05:38:59;;;;;;;;;1.50;1.50;;;;;17.41;47.45;104177.78;4913910;29;8819;-70
2022/03/18 05:41:24;;;;;;;;;2.00;1.00;;;;;17.46;47.35;104184.19;4913294;29;8828;-70
2022/03/18 05:43:50;;;;;;;;;3.75;2.00;;;;;17.46;47.67;104191.19;4913952;29;8922;-69
2022/03/18 05:46:15;;;;;;;;;2.50;1.75;;;;;17.48;47.40;104201.00;4913760;29;8923;-71
2022/03/18 05:48:40;;;;;;;;;2.00;2.00;;;;;17.47;47.47;104196.53;4913302;29;8942;-71
2022/03/18 05:51:06;;;;;;;;;3.00;3.00;;;;;17.44;47.38;104204.31;4913213;29;8808;-70
2022/03/18 05:53:31;;;;;;;;;4.25;3.75;;;;;17.45;47.73;104199.94;4913286;29;8817;-70
2022/03/18 05:58:42;;;;;;;;;1.50;1.50;;;;;17.43;47.61;104205.19;4913728;29;8881;-70
2022/03/18 06:01:07;;;;;;;;;2.75;2.75;;;;;17.43;47.47;104202.53;4912550;29;10592;-70
2022/03/18 06:03:33;;;;;;;;;2.50;2.50;;;;;17.44;47.24;104203.41;4913520;29;9547;-70
2022/03/18 06:05:59;;;;;;;;;2.50;2.00;;;;;17.44;47.56;104203.41;4913617;29;8903;-70
2022/03/18 06:13:51;;;;;;;;;3.75;3.75;;;;;17.39;47.69;104201.50;4913696;29;10344;-70
2022/03/18 06:16:17;;;;;;;;;2.25;2.00;;;;;17.42;47.40;104210.38;4913062;29;9814;-70
2022/03/18 06:18:45;;;;;;;;;3.00;3.00;;;;;17.37;47.51;104208.41;4913743;29;8801;-70
2022/03/18 06:21:12;;;;;;;;;2.00;2.00;;;;;17.44;47.39;104211.34;4913597;29;8952;-71
2022/03/18 06:23:38;;;;;;;;;1.50;1.00;;;;;17.42;47.19;104215.66;4912774;29;9691;-69
2022/03/18 06:26:03;;;;;;;;;2.50;2.00;;;;;17.38;47.56;104210.25;4913008;29;9664;-71
2022/03/18 06:28:30;;;;;;;;;3.50;2.25;;;;;17.41;47.31;104217.38;4913803;29;8780;-71
2022/03/18 06:30:56;;;;;;;;;4.25;3.25;;;;;17.43;47.14;104231.59;4912277;29;8797;-72
2022/03/18 06:33:24;;;;;;;;;2.25;1.25;;;;;17.40;47.17;104229.69;4913162;29;9535;-70
2022/03/18 06:35:50;;;;;;;;;2.00;2.00;;;;;17.36;47.41;104230.38;4912696;29;8797;-70
2022/03/18 06:38:15;;;;;;;;;1.00;1.00;;;;;17.39;47.04;104238.47;4909694;29;9422;-70
2022/03/18 06:40:40;;;;;;;;;3.00;1.50;;;;;17.42;46.98;104235.06;4912903;29;8939;-70
2022/03/18 06:43:06;;;;;;;;;1.00;1.00;;;;;17.42;47.13;104245.63;4912277;29;8931;-70
2022/03/18 06:45:31;;;;;;;;;2.25;2.25;;;;;17.40;47.14;104249.91;4913287;29;9545;-69
2022/03/18 06:47:56;;;;;;;;;2.75;2.75;;;;;17.45;47.31;104248.41;4912895;29;8896;-70
2022/03/18 06:50:25;;;;;;;;;1.00;1.00;;;;;17.39;47.21;104246.41;4912597;29;8828;-70
2022/03/18 06:52:50;;;;;;;;;2.00;2.00;;;;;17.42;47.15;104250.91;4912988;29;8828;-69
2022/03/18 06:55:16;;;;;;;;;1.75;1.75;;;;;17.40;47.22;104248.19;4912616;29;9601;-69
2022/03/18 06:57:42;;;;;;;;;1.00;1.00;;;;;17.44;47.15;104257.16;4912584;29;8808;-70
2022/03/18 07:00:09;;;;;;;;;1.75;1.75;;;;;17.44;47.28;104264.16;4912689;29;8835;-70
2022/03/18 07:02:34;;;;;;;;;3.25;2.25;;;;;17.53;51.94;104264.63;4913800;29;9565;-77
2022/03/18 07:04:59;;;;;;;;;2.00;2.00;;;;;17.53;50.71;104264.63;4924439;29;9528;-78
2022/03/18 07:07:24;;;;;;;;;3.75;3.00;;;;;17.60;49.40;104258.81;4921919;29;8965;-76
2022/03/18 07:09:50;;;;;;;;;3.50;3.50;;;;;17.63;50.97;104259.88;4918583;29;8847;-77
2022/03/18 07:12:16;;;;;;;;;3.00;2.75;;;;;17.72;51.82;104251.47;4916164;29;8832;-75
2022/03/18 07:14:41;;;;;;;;;2.75;2.00;;;;;17.75;51.81;104262.19;4917818;29;8808;-75
2022/03/18 07:19:52;;;;;;;;;5.00;3.00;;;;;17.88;53.42;104270.75;4921273;29;8796;-72
2022/03/18 07:22:18;;;;;;;;;4.50;3.00;;;;;17.92;56.07;104269.13;4918064;29;9663;-71
2022/03/18 07:24:43;;;;;;;;;4.00;2.50;;;;;17.91;55.29;104270.00;4917285;29;9469;-71
2022/03/18 07:27:09;;;;;;;;;3.50;2.75;;;;;17.91;55.81;104266.44;4915839;29;8805;-71
2022/03/18 07:29:34;;;;;;;;;3.50;3.50;;;;;17.97;57.21;104269.34;4916808;29;8804;-73
2022/03/18 07:32:00;;;;;;;;;6.75;6.00;;;;;17.95;58.67;104268.41;4915870;29;8828;-72
2022/03/18 07:34:25;;;;;;;;;4.50;4.00;;;;;17.93;57.87;104281.53;4916568;29;8858;-73
2022/03/18 07:36:50;;;;;;;;;3.00;3.00;;;;;17.96;57.92;104284.31;4913103;29;8840;-79
2022/03/18 07:39:16;;;;;;;;;6.00;5.25;;;;;17.98;58.20;104287.03;4915862;29;8962;-71
2022/03/18 07:41:41;;;;;;;;;7.50;4.00;;;;;17.96;57.98;104305.47;4916958;29;8852;-72
2022/03/18 07:44:07;;;;;;;;;4.00;3.50;;;;;17.98;58.22;104313.47;4909904;29;8803;-72
2022/03/18 07:46:33;;;;;;;;;5.00;3.75;;;;;17.96;58.46;104313.41;4914032;29;8807;-72
2022/03/18 07:48:58;;;;;;;;;4.00;3.00;;;;;17.95;58.27;104306.31;4914924;29;8801;-70
2022/03/18 07:51:23;;;;;;;;;4.50;4.50;;;;;17.97;57.99;104319.59;4916404;29;8995;-71
2022/03/18 07:53:49;;;;;;;;;5.50;5.00;;;;;17.96;58.05;104328.38;4915789;29;8813;-71
2022/03/18 07:56:14;;;;;;;;;5.50;4.25;;;;;18.00;58.18;104327.66;4916880;29;8800;-71
2022/03/18 07:58:39;;;;;;;;;4.00;4.00;;;;;17.98;57.70;104329.34;4916928;29;8813;-71
2022/03/18 08:01:05;;;;;;;;;4.00;4.00;;;;;17.99;57.43;104337.38;4916075;29;9585;-71
2022/03/18 08:03:31;;;;;;;;;3.50;3.50;;;;;18.02;57.38;104337.50;4916108;29;8959;-70
2022/03/18 08:05:56;;;;;;;;;3.00;3.00;;;;;18.04;56.89;104345.47;4916268;29;10462;-71
2022/03/18 08:08:22;;;;;;;;;1.00;1.00;;;;;18.02;56.82;104345.44;4915664;29;8788;-70
2022/03/18 08:10:47;;;;;;;;;5.25;4.50;;;;;18.03;56.87;104356.91;4916154;29;8827;-71
2022/03/18 08:13:13;;;;;;;;;5.00;4.00;;;;;18.01;56.51;104362.13;4915940;29;8943;-70
2022/03/18 08:15:40;;;;;;;;;4.00;4.00;;;;;17.99;56.26;104366.44;4915603;29;8801;-70
2022/03/18 08:18:05;;;;;;;;;2.50;2.25;;;;;17.98;56.53;104364.63;4915975;29;9659;-70
2022/03/18 08:20:30;;;;;;;;;5.00;4.25;;;;;18.00;56.37;104376.16;4915996;29;9452;-71
2022/03/18 08:22:56;;;;;;;;;9.50;7.75;;;;;18.01;56.19;104369.16;4915512;29;9561;-70
2022/03/18 08:25:21;;;;;;;;;5.50;4.50;;;;;18.06;55.87;104370.28;4915946;29;8820;-70
2022/03/18 08:27:48;;;;;;;;;6.50;4.00;;;;;18.06;55.73;104368.53;4915668;29;8891;-70
2022/03/18 08:30:14;;;;;;;;;4.50;4.50;;;;;18.05;55.40;104368.47;4914685;29;8934;-70
2022/03/18 08:32:40;;;;;;;;;5.00;2.25;;;;;18.07;55.24;104370.31;4915841;29;9698;-70
2022/03/18 08:35:09;;;;;;;;;3.00;3.00;;;;;18.05;55.22;104371.09;4915443;29;8950;-69
2022/03/18 08:40:18;;;;;;;;;3.00;3.00;;;;;18.08;54.67;104373.88;4915071;29;9592;-70
2022/03/18 08:42:44;;;;;;;;;8.75;7.50;;;;;18.08;54.75;104381.81;4914571;29;9727;-69
2022/03/18 08:45:10;;;;;;;;;12.00;8.25;;;;;18.07;54.61;104386.19;4914960;29;8804;-70
2022/03/18 08:47:35;;;;;;;;;8.50;5.50;;;;;18.09;54.52;104386.28;4915124;29;8808;-70
2022/03/18 08:50:01;;;;;;;;;5.75;5.75;;;;;18.12;54.15;104383.78;4914567;29;8851;-70
2022/03/18 08:52:29;;;;;;;;;8.50;7.50;;;;;18.09;54.27;104384.53;4915669;29;8906;-70
2022/03/18 08:54:54;;;;;;;;;6.75;6.00;;;;;18.10;54.32;104396.94;4915396;29;8899;-70
2022/03/18 08:57:20;;;;;;;;;6.25;5.50;;;;;18.11;53.96;104390.78;4914471;29;10478;-70
2022/03/18 08:59:45;;;;;;;;;7.00;5.75;;;;;18.15;53.79;104399.78;4914939;29;8796;-70
2022/03/18 09:02:10;;;;;;;;;5.25;5.00;;;;;18.14;53.96;104398.00;4914282;29;8892;-69
2022/03/18 09:04:36;;;;;;;;;8.00;7.00;;;;;18.13;53.88;104401.47;4914590;29;8809;-70
2022/03/18 09:07:01;;;;;;;;;6.50;5.25;;;;;18.15;53.72;104405.06;4914670;29;8795;-71
2022/03/18 09:09:26;;;;;;;;;6.00;5.00;;;;;18.16;53.45;104396.31;4914961;29;8832;-70
2022/03/18 09:11:52;;;;;;;;;4.00;4.00;;;;;18.14;53.51;104403.28;4914176;29;8927;-70
2022/03/18 09:14:17;;;;;;;;;5.50;4.00;;;;;18.16;53.45;104405.16;4914371;29;8840;-70
2022/03/18 09:16:42;;;;;;;;;10.25;5.50;;;;;18.15;53.38;104402.41;4914523;29;8816;-70
2022/03/18 09:19:08;;;;;;;;;4.00;4.00;;;;;18.16;53.49;104407.81;4913686;29;8832;-70
2022/03/18 09:21:34;;;;;;;;;4.00;4.00;;;;;18.18;53.30;104421.97;4914428;29;8888;-70
2022/03/18 09:24:01;;;;;;;;;5.00;5.00;;;;;18.20;53.10;104416.78;4914391;29;9665;-70
2022/03/18 09:26:26;;;;;;;;;5.00;5.00;;;;;18.20;53.02;104430.00;4913157;29;8812;-70
2022/03/18 09:28:52;;;;;;;;;7.50;6.50;;;;;18.21;52.90;104430.09;4914478;29;9684;-70
2022/03/18 09:31:17;;;;;;;;;3.50;3.00;;;;;18.23;52.75;104435.44;4914047;29;8800;-71
2022/03/18 09:33:43;;;;;;;;;3.75;3.75;;;;;18.22;52.85;104437.16;4913901;29;9575;-70
2022/03/18 09:36:10;;;;;;;;;7.25;6.00;;;;;18.23;52.78;104441.63;4913188;29;8824;-70
2022/03/18 09:38:36;;;;;;;;;4.50;4.50;;;;;18.24;52.89;104447.84;4911653;29;8808;-70
2022/03/18 09:41:01;;;;;;;;;5.50;5.50;;;;;18.23;52.71;104457.50;4913977;29;9525;-70
2022/03/18 09:43:35;;;;;;;;;4.00;3.50;;;;;18.26;52.45;104456.72;4914510;29;8796;-70
2022/03/18 09:46:07;;;;;;;;;5.00;5.00;;;;;18.28;52.43;104458.66;4913408;29;8895;-70
2022/03/18 09:48:33;;;;;;;;;3.75;3.75;;;;;18.27;52.52;104466.50;4914147;29;9598;-70
2022/03/18 09:51:01;;;;;;;;;4.00;4.00;;;;;18.27;52.53;104458.56;4913847;29;9522;-70
2022/03/18 09:53:26;;;;;;;;;6.00;5.00;;;;;18.28;52.50;104465.66;4913281;29;9722;-70
2022/03/18 09:55:52;;;;;;;;;5.25;5.00;;;;;18.29;52.33;104454.25;4913880;29;9852;-71
2022/03/18 09:58:18;;;;;;;;;5.00;5.00;;;;;18.31;52.28;104468.44;4913408;29;9605;-70
2022/03/18 10:00:45;;;;;;;;;6.00;5.00;;;;;18.29;52.08;104468.41;4913213;29;8796;-70
2022/03/18 10:03:16;;;;;;;;;5.00;4.75;;;;;18.31;52.24;104476.38;4913309;29;9554;-70
2022/03/18 10:06:00;;;;;;;;;5.00;4.25;;;;;18.32;52.16;104471.19;4914035;29;9611;-70
2022/03/18 10:08:52;;;;;;;;;5.75;4.75;;;;;18.32;52.13;104473.84;4914083;29;9704;-71
2022/03/18 10:11:26;;;;;;;;;6.00;5.25;;;;;18.36;51.90;104469.59;4917216;29;9787;-71
2022/03/18 10:13:56;;;;;;;;;4.00;4.00;;;;;18.38;51.69;104465.25;4914511;29;9572;-71
2022/03/18 10:16:51;;;;;;;;;5.00;5.00;;;;;18.37;51.71;104463.44;4915339;29;9782;-69
2022/03/18 10:19:25;;;;;;;;;4.00;4.00;;;;;18.38;51.96;104464.34;4898135;29;9517;-70
2022/03/18 10:21:55;;;;;;;;;3.00;3.00;;;;;18.38;51.82;104467.91;4917018;29;9542;-69
2022/03/18 10:24:31;;;;;;;;;4.25;3.75;;;;;18.40;51.73;104471.56;4915102;29;9605;-71
2022/03/18 10:27:20;;;;;;;;;5.00;4.00;;;;;18.39;51.68;104468.81;4913758;29;9805;-71
2022/03/18 10:29:53;;;;;;;;;1.75;1.75;;;;;18.42;51.68;104466.31;4913202;29;9596;-71
2022/03/18 10:32:20;;;;;;;;;3.25;3.25;;;;;18.42;51.74;104466.31;4913676;29;9609;-70
2022/03/18 10:37:50;;;;;;;;;6.25;5.25;;;;;18.43;51.36;104471.69;4910346;29;9520;-70
2022/03/18 10:40:17;;;;;;;;;7.50;5.00;;;;;18.47;51.45;104464.78;4913114;29;9515;-71
2022/03/18 10:42:59;;;;;;;;;3.50;3.00;;;;;18.45;51.72;104464.72;4912608;29;9617;-71
2022/03/18 10:45:24;;;;;;;;;5.00;4.00;;;;;18.46;51.42;104476.22;4913578;29;9574;-70
2022/03/18 10:47:52;;;;;;;;;5.50;5.50;;;;;18.47;51.21;104478.94;4913349;29;9684;-70
2022/03/18 10:50:25;;;;;;;;;3.25;3.25;;;;;18.46;51.24;104477.13;4912229;29;9077;-70
2022/03/18 10:52:53;;;;;;;;;5.00;5.00;;;;;18.47;51.24;104472.72;4913668;29;9499;-71
2022/03/18 10:55:20;;;;;;;;;2.00;2.00;;;;;18.49;51.17;104477.25;4913161;29;9516;-71
2022/03/18 10:57:54;;;;;;;;;1.50;1.50;;;;;18.50;51.40;104487.00;4912329;29;9782;-70
2022/03/18 11:00:21;;;;;;;;;3.00;1.50;;;;;18.50;51.54;104481.72;4913310;29;9433;-71
2022/03/18 11:02:48;;;;;;;;;2.75;2.00;;;;;18.50;51.27;104481.72;4913079;29;9673;-70
2022/03/18 11:05:14;;;;;;;;;2.50;2.50;;;;;18.51;51.35;104486.22;4912355;29;9921;-70
2022/03/18 11:07:43;;;;;;;;;2.00;2.00;;;;;18.54;51.34;104481.06;4913311;29;9439;-71
2022/03/18 11:12:56;;;;;;;;;1.75;1.75;;;;;18.56;50.91;104486.44;4912838;29;9439;-71
2022/03/18 11:15:24;;;;;;;;;2.00;2.00;;;;;18.56;51.08;104489.09;4912832;29;9549;-70
2022/03/18 11:17:50;;;;;;;;;3.25;3.25;;;;;18.57;50.93;104497.09;4912605;29;9614;-71
2022/03/18 11:20:20;;;;;;;;;1.75;1.75;;;;;18.56;51.00;104482.03;4912947;29;9583;-71
2022/03/18 11:22:47;;;;;;;;;3.00;3.00;;;;;18.57;50.74;104486.50;4913149;29;8836;-70
2022/03/18 11:25:17;;;;;;;;;2.75;1.25;;;;;18.59;50.68;104490.13;4912070;29;9578;-70
2022/03/18 11:27:44;;;;;;;;;2.25;2.25;;;;;18.60;50.98;104494.56;4913019;29;9390;-70
2022/03/18 11:30:25;;;;;;;;;1.00;1.00;;;;;18.62;50.79;104498.22;4912537;29;9527;-70
2022/03/18 11:33:15;;;;;;;;;4.00;4.00;;;;;18.63;50.69;104497.34;4912281;29;9455;-70
2022/03/18 11:35:49;;;;;;;;;1.33;1.00;;;;;18.62;50.91;104497.31;4912996;29;9525;-70
2022/03/18 11:38:25;;;;;;;;;2.75;1.75;;;;;18.63;50.96;104493.84;4908823;29;9399;-70
2022/03/18 11:41:02;;;;;;;;;1.00;1.00;;;;;18.63;50.76;104494.72;4895548;29;9472;-71
2022/03/18 11:43:32;;;;;;;;;1.00;1.00;;;;;18.66;50.60;104492.22;4912991;29;9594;-70
2022/03/18 11:46:12;;;;;;;;;1.75;1.75;;;;;18.67;50.79;104487.84;4911832;29;9670;-70
2022/03/18 11:48:41;;;;;;;;;1.50;1.50;;;;;18.71;50.59;104487.13;4913281;29;9593;-70
2022/03/18 11:51:35;;;;;;;;;1.50;1.50;;;;;18.70;50.43;104485.34;4916060;29;9370;-71
2022/03/18 11:54:10;;;;;;;;;1.00;1.00;;;;;18.69;50.66;104487.06;4915497;29;9435;-70
2022/03/18 11:56:47;;;;;;;;;1.00;1.00;;;;;18.71;50.28;104480.09;4916158;29;9490;-70
2022/03/18 11:59:24;;;;;;;;;0.50;0.50;;;;;18.72;50.28;104487.22;4915109;29;9380;-71
2022/03/18 12:01:54;;;;;;;;;1.00;1.00;;;;;18.71;50.51;104484.47;4916193;29;9548;-69
2022/03/18 12:04:36;;;;;;;;;1.00;1.00;;;;;18.71;50.63;104480.09;4915863;29;9862;-70